createdAt,value
2019-04-14T00:00:55.664Z,57.80
2019-04-14T00:03:52.953Z,57.80
2019-04-14T00:06:22.294Z,58.00
2019-04-14T00:08:50.265Z,57.70
2019-04-14T00:11:19.040Z,58.30
2019-04-14T00:13:47.810Z,57.50
2019-04-14T00:16:16.377Z,57.50
2019-04-14T00:18:44.764Z,58.00
2019-04-14T00:21:12.946Z,57.80
2019-04-14T00:23:41.259Z,57.90
2019-04-14T00:26:35.585Z,57.70
2019-04-14T00:29:04.613Z,57.10
2019-04-14T00:31:32.941Z,57.50
2019-04-14T00:34:35.359Z,57.50
2019-04-14T00:37:27.275Z,57.30
2019-04-14T00:39:59.746Z,57.50
2019-04-14T00:42:34.195Z,58.00
2019-04-14T00:45:32.107Z,58.00
2019-04-14T00:48:03.355Z,57.50
2019-04-14T00:50:25.427Z,58.20
2019-04-14T00:52:54.426Z,58.80
2019-04-14T00:55:22.579Z,58.20
2019-04-14T00:57:50.879Z,57.70
2019-04-14T01:00:19.308Z,58.00
2019-04-14T01:02:49.303Z,58.30
2019-04-14T01:05:17.458Z,59.10
2019-04-14T01:07:45.567Z,58.40
2019-04-14T01:10:13.264Z,58.10
2019-04-14T01:12:41.039Z,58.80
2019-04-14T01:15:09.272Z,58.50
2019-04-14T01:17:37.364Z,58.00
2019-04-14T01:20:05.833Z,58.10
2019-04-14T01:22:33.596Z,58.20
2019-04-14T01:25:02.316Z,59.40
2019-04-14T01:27:30.042Z,59.10
2019-04-14T01:29:58.172Z,58.80
2019-04-14T01:32:26.151Z,59.00
2019-04-14T01:34:54.466Z,58.90
2019-04-14T01:37:23.205Z,58.20
2019-04-14T01:39:50.847Z,58.50
2019-04-14T01:42:18.470Z,58.40
2019-04-14T01:44:46.125Z,58.80
2019-04-14T01:47:13.808Z,58.50
2019-04-14T01:49:41.883Z,58.30
2019-04-14T01:52:41.196Z,58.00
2019-04-14T01:55:41.432Z,58.80
2019-04-14T01:58:14.879Z,58.30
2019-04-14T02:01:14.835Z,58.00
2019-04-14T02:03:43.350Z,58.00
2019-04-14T02:06:11.439Z,58.70
2019-04-14T02:08:39.384Z,58.80
2019-04-14T02:11:07.430Z,58.60
2019-04-14T02:13:35.443Z,58.50
2019-04-14T02:16:15.006Z,58.60
2019-04-14T02:18:33.985Z,57.80
2019-04-14T02:21:02.140Z,58.30
2019-04-14T02:23:30.206Z,58.40
2019-04-14T02:25:58.110Z,58.70
2019-04-14T02:28:26.469Z,58.70
2019-04-14T02:31:08.266Z,58.20
2019-04-14T02:34:02.306Z,57.90
2019-04-14T02:38:57.422Z,58.10
2019-04-14T02:43:51.094Z,58.50
2019-04-14T02:46:32.221Z,58.40
2019-04-14T02:48:50.833Z,58.40
2019-04-14T02:51:21.153Z,58.40
2019-04-14T02:53:49.674Z,58.60
2019-04-14T02:56:28.076Z,58.20
2019-04-14T02:58:59.461Z,58.70
2019-04-14T03:03:43.034Z,58.30
2019-04-14T03:06:12.089Z,58.50
2019-04-14T03:13:45.570Z,58.70
2019-04-14T03:16:24.066Z,58.70
2019-04-14T03:18:50.613Z,58.40
2019-04-14T03:21:45.189Z,58.50
2019-04-14T03:24:27.478Z,58.20
2019-04-14T03:27:00.284Z,57.80
2019-04-14T03:29:43.306Z,58.50
2019-04-14T03:32:14.282Z,58.30
2019-04-14T03:34:44.252Z,59.30
2019-04-14T03:37:30.897Z,58.60
2019-04-14T03:39:38.583Z,58.80
2019-04-14T03:42:00.683Z,58.20
2019-04-14T03:44:34.636Z,57.90
2019-04-14T03:47:08.772Z,57.60
2019-04-14T03:49:31.649Z,58.50
2019-04-14T03:52:15.340Z,58.00
2019-04-14T03:54:20.149Z,58.00
2019-04-14T03:56:51.401Z,58.20
2019-04-14T03:59:19.734Z,58.40
2019-04-14T04:01:47.919Z,57.90
2019-04-14T04:04:16.161Z,58.50
2019-04-14T04:06:44.261Z,58.00
2019-04-14T04:09:12.592Z,58.50
2019-04-14T04:11:41.199Z,58.20
2019-04-14T04:14:09.647Z,57.70
2019-04-14T04:16:57.293Z,57.50
2019-04-14T04:19:35.890Z,57.10
2019-04-14T04:22:23.661Z,58.20
2019-04-14T04:24:59.110Z,57.70
2019-04-14T04:27:44.044Z,57.60
2019-04-14T04:30:25.402Z,57.70
2019-04-14T04:33:05.229Z,58.10
2019-04-14T04:35:37.049Z,58.60
2019-04-14T04:38:22.717Z,58.80
2019-04-14T04:40:50.953Z,58.40
2019-04-14T04:43:19.028Z,58.10
2019-04-14T04:45:47.390Z,58.50
2019-04-14T04:48:15.249Z,58.30
2019-04-14T04:50:43.171Z,57.90
2019-04-14T04:53:11.518Z,58.60
2019-04-14T04:55:39.522Z,58.80
2019-04-14T04:58:07.781Z,59.20
2019-04-14T05:00:35.561Z,59.30
2019-04-14T05:03:03.660Z,59.20
2019-04-14T05:06:23.784Z,58.50
2019-04-14T05:08:54.475Z,58.60
2019-04-14T05:11:29.656Z,58.20
2019-04-14T05:13:58.452Z,58.10
2019-04-14T05:16:26.145Z,58.00
2019-04-14T05:18:53.773Z,58.00
2019-04-14T05:21:21.504Z,57.80
2019-04-14T05:23:49.540Z,58.00
2019-04-14T05:26:17.813Z,58.00
2019-04-14T05:28:46.033Z,58.20
2019-04-14T05:31:14.325Z,57.90
2019-04-14T05:33:42.553Z,58.10
2019-04-14T05:36:10.711Z,57.90
2019-04-14T05:38:38.623Z,57.80
2019-04-14T05:41:06.983Z,58.00
2019-04-14T05:43:43.757Z,58.50
2019-04-14T05:46:05.492Z,58.80
2019-04-14T05:48:33.735Z,59.00
2019-04-14T05:51:02.019Z,58.40
2019-04-14T05:53:30.536Z,58.40
2019-04-14T05:55:59.288Z,57.30
2019-04-14T05:58:27.530Z,56.80
2019-04-14T06:00:55.798Z,57.70
2019-04-14T06:03:23.572Z,58.00
2019-04-14T06:05:51.337Z,57.30
2019-04-14T06:08:18.980Z,57.70
2019-04-14T06:10:46.641Z,57.20
2019-04-14T06:13:14.466Z,57.10
2019-04-14T06:15:42.121Z,58.00
2019-04-14T06:18:10.812Z,58.20
2019-04-14T06:20:38.511Z,58.60
2019-04-14T06:23:07.298Z,58.60
2019-04-14T06:25:36.348Z,58.70
2019-04-14T06:28:04.353Z,58.00
2019-04-14T06:30:44.704Z,58.30
2019-04-14T06:33:24.878Z,57.90
2019-04-14T06:36:21.905Z,57.30
2019-04-14T06:38:52.905Z,57.80
2019-04-14T06:41:20.869Z,58.30
2019-04-14T06:43:49.338Z,57.40
2019-04-14T06:46:17.133Z,57.30
2019-04-14T06:48:44.852Z,57.00
2019-04-14T06:51:12.561Z,56.60
2019-04-14T06:53:40.221Z,56.20
2019-04-14T06:56:07.905Z,56.60
2019-04-14T06:58:35.573Z,57.00
2019-04-14T07:01:03.219Z,57.50
2019-04-14T07:03:30.948Z,57.50
2019-04-14T07:06:00.125Z,56.50
2019-04-14T07:08:29.940Z,56.60
2019-04-14T07:10:57.602Z,56.70
2019-04-14T07:13:25.284Z,57.10
2019-04-14T07:15:52.950Z,57.30
2019-04-14T07:18:20.607Z,57.50
2019-04-14T07:20:48.343Z,57.10
2019-04-14T07:23:16.123Z,57.20
2019-04-14T07:25:43.761Z,55.90
2019-04-14T07:28:11.433Z,56.80
2019-04-14T07:31:07.428Z,55.90
2019-04-14T07:33:54.614Z,55.90
2019-04-14T07:36:41.833Z,55.90
2019-04-14T07:39:27.774Z,55.30
2019-04-14T07:42:02.576Z,55.60
2019-04-14T07:45:02.011Z,55.50
2019-04-14T07:47:49.668Z,54.60
2019-04-14T07:50:35.694Z,54.60
2019-04-14T07:53:22.836Z,54.20
2019-04-14T07:56:02.324Z,53.80
2019-04-14T07:58:49.128Z,53.30
2019-04-14T08:01:21.248Z,53.00
2019-04-14T08:04:08.676Z,53.20
2019-04-14T08:06:38.380Z,52.70
2019-04-14T08:09:06.487Z,53.70
2019-04-14T08:11:34.215Z,52.50
2019-04-14T08:14:01.938Z,53.80
2019-04-14T08:16:29.606Z,52.60
2019-04-14T08:18:57.279Z,52.50
2019-04-14T08:21:25.037Z,53.10
2019-04-14T08:23:53.721Z,53.80
2019-04-14T08:26:21.369Z,53.50
2019-04-14T08:28:48.997Z,53.50
2019-04-14T08:31:16.905Z,52.70
2019-04-14T08:33:44.624Z,53.30
2019-04-14T08:36:12.269Z,54.90
2019-04-14T08:38:41.844Z,54.70
2019-04-14T08:41:09.559Z,55.30
2019-04-14T08:43:42.649Z,55.70
2019-04-14T08:46:32.882Z,56.10
2019-04-14T08:49:11.346Z,56.40
2019-04-14T08:52:01.529Z,57.10
2019-04-14T08:55:06.897Z,56.60
2019-04-14T08:58:05.922Z,56.70
2019-04-14T09:00:43.456Z,54.60
2019-04-14T09:03:22.254Z,54.00
2019-04-14T09:06:03.759Z,55.40
2019-04-14T09:08:53.900Z,53.90
2019-04-14T09:11:27.837Z,54.10
2019-04-14T09:13:55.526Z,55.00
2019-04-14T09:16:23.235Z,54.00
2019-04-14T09:18:53.553Z,53.40
2019-04-14T09:21:20.510Z,52.60
2019-04-14T09:23:48.294Z,54.50
2019-04-14T09:26:16.215Z,53.10
2019-04-14T09:28:43.910Z,51.60
2019-04-14T09:31:11.624Z,51.90
2019-04-14T09:33:39.337Z,52.60
2019-04-14T09:36:07.022Z,51.60
2019-04-14T09:38:34.692Z,51.50
2019-04-14T09:41:02.450Z,52.20
2019-04-14T09:43:30.141Z,48.70
2019-04-14T09:45:57.785Z,50.10
2019-04-14T09:48:25.536Z,50.30
2019-04-14T09:51:04.136Z,52.60
2019-04-14T09:53:23.002Z,51.50
2019-04-14T09:55:50.647Z,52.40
2019-04-14T09:58:18.491Z,50.40
2019-04-14T10:00:46.329Z,50.80
2019-04-14T10:03:14.081Z,48.40
2019-04-14T10:05:41.766Z,48.60
2019-04-14T10:08:09.461Z,47.80
2019-04-14T10:10:37.225Z,49.30
2019-04-14T10:13:05.041Z,49.50
2019-04-14T10:15:33.825Z,45.60
2019-04-14T10:18:01.411Z,49.00
2019-04-14T10:20:30.140Z,46.70
2019-04-14T10:22:57.832Z,45.90
2019-04-14T10:25:25.552Z,45.90
2019-04-14T10:27:53.223Z,46.50
2019-04-14T10:30:20.883Z,46.00
2019-04-14T10:32:48.568Z,45.60
2019-04-14T10:35:16.281Z,44.50
2019-04-14T10:37:43.954Z,44.70
2019-04-14T10:40:11.645Z,45.30
2019-04-14T10:42:39.334Z,43.70
2019-04-14T10:45:07.018Z,46.20
2019-04-14T10:47:34.735Z,45.20
2019-04-14T10:50:02.413Z,46.10
2019-04-14T10:52:30.099Z,44.80
2019-04-14T10:54:57.798Z,46.10
2019-04-14T10:57:25.513Z,43.60
2019-04-14T10:59:53.173Z,45.80
2019-04-14T11:02:20.911Z,46.10
2019-04-14T11:04:48.561Z,44.80
2019-04-14T11:07:21.691Z,46.20
2019-04-14T11:09:49.378Z,45.50
2019-04-14T11:12:17.082Z,45.60
2019-04-14T11:14:44.756Z,43.70
2019-04-14T11:17:12.849Z,42.60
2019-04-14T11:19:40.540Z,44.60
2019-04-14T11:22:08.316Z,44.40
2019-04-14T11:24:36.076Z,42.50
2019-04-14T11:27:03.843Z,41.50
2019-04-14T11:29:31.474Z,41.50
2019-04-14T11:32:14.308Z,43.50
2019-04-14T11:34:46.842Z,42.70
2019-04-14T11:37:52.521Z,45.30
2019-04-14T11:40:22.737Z,39.60
2019-04-14T11:42:52.628Z,42.90
2019-04-14T11:45:21.006Z,42.20
2019-04-14T11:47:48.721Z,42.20
2019-04-14T11:50:16.509Z,42.70
2019-04-14T11:52:44.293Z,42.20
2019-04-14T11:55:12.045Z,42.20
2019-04-14T11:57:39.723Z,39.90
2019-04-14T12:00:25.637Z,40.40
2019-04-14T12:03:22.057Z,40.40
2019-04-14T12:06:06.513Z,40.50
2019-04-14T12:08:45.806Z,40.80
2019-04-14T12:11:13.504Z,39.90
2019-04-14T12:13:41.161Z,39.70
2019-04-14T12:16:08.828Z,40.60
2019-04-14T12:18:36.547Z,39.20
2019-04-14T12:21:04.264Z,38.50
2019-04-14T12:23:32.065Z,39.40
2019-04-14T12:26:05.449Z,37.60
2019-04-14T12:28:29.348Z,36.90
2019-04-14T12:30:57.593Z,37.00
2019-04-14T12:33:25.385Z,37.90
2019-04-14T12:35:53.145Z,37.50
2019-04-14T12:38:20.921Z,38.40
2019-04-14T12:40:49.378Z,36.00
2019-04-14T12:43:26.433Z,36.30
2019-04-14T12:46:12.321Z,38.30
2019-04-14T12:48:48.014Z,36.60
2019-04-14T12:51:20.578Z,37.30
2019-04-14T12:53:48.500Z,35.40
2019-04-14T12:56:19.222Z,37.00
2019-04-14T12:58:56.281Z,36.90
2019-04-14T13:01:25.607Z,37.70
2019-04-14T13:03:54.805Z,39.50
2019-04-14T13:06:22.490Z,37.70
2019-04-14T13:08:50.149Z,35.30
2019-04-14T13:11:17.853Z,36.30
2019-04-14T13:13:45.601Z,33.40
2019-04-14T13:16:13.555Z,37.30
2019-04-14T13:18:41.245Z,35.40
2019-04-14T13:21:09.186Z,35.40
2019-04-14T13:23:37.003Z,36.20
2019-04-14T13:26:04.682Z,36.50
2019-04-14T13:28:32.358Z,36.50
2019-04-14T13:31:00.069Z,37.70
2019-04-14T13:33:27.757Z,35.60
2019-04-14T13:35:55.443Z,34.10
2019-04-14T13:38:23.087Z,33.70
2019-04-14T13:40:50.769Z,33.90
2019-04-14T13:43:18.474Z,33.40
2019-04-14T13:45:46.136Z,34.40
2019-04-14T13:48:14.285Z,34.10
2019-04-14T13:50:42.043Z,33.00
2019-04-14T13:53:09.708Z,33.60
2019-04-14T13:55:37.489Z,31.50
2019-04-14T13:58:05.304Z,33.70
2019-04-14T14:00:33.064Z,34.40
2019-04-14T14:03:01.057Z,33.10
2019-04-14T14:05:28.853Z,33.10
2019-04-14T14:07:56.627Z,33.10
2019-04-14T14:10:24.287Z,32.90
2019-04-14T14:13:14.365Z,32.60
2019-04-14T14:15:59.949Z,31.50
2019-04-14T14:18:53.409Z,32.60
2019-04-14T14:21:29.939Z,32.90
2019-04-14T14:24:15.839Z,30.80
2019-04-14T14:26:44.149Z,32.50
2019-04-14T14:29:11.866Z,32.40
2019-04-14T14:31:39.659Z,31.50
2019-04-14T14:34:07.421Z,30.90
2019-04-14T14:36:35.122Z,30.00
2019-04-14T14:39:04.680Z,33.40
2019-04-14T14:41:33.752Z,30.60
2019-04-14T14:44:01.507Z,31.10
2019-04-14T14:46:48.041Z,30.00
2019-04-14T14:49:23.135Z,30.50
2019-04-14T14:51:53.664Z,30.00
2019-04-14T14:54:21.345Z,30.00
2019-04-14T14:56:50.008Z,29.90
2019-04-14T14:59:17.767Z,29.10
2019-04-14T15:01:45.537Z,30.00
2019-04-14T15:04:13.207Z,30.00
2019-04-14T15:06:40.923Z,30.40
2019-04-14T15:09:08.621Z,28.60
2019-04-14T15:11:36.333Z,29.70
2019-04-14T15:14:05.294Z,29.80
2019-04-14T15:16:32.969Z,30.00
2019-04-14T15:19:00.603Z,29.90
2019-04-14T15:21:28.376Z,29.90
2019-04-14T15:23:56.047Z,29.20
2019-04-14T15:26:23.723Z,30.70
2019-04-14T15:28:51.405Z,29.60
2019-04-14T15:31:20.240Z,29.00
2019-04-14T15:33:47.888Z,29.80
2019-04-14T15:36:15.630Z,29.80
2019-04-14T15:38:43.278Z,30.50
2019-04-14T15:41:11.037Z,29.00
2019-04-14T15:43:38.818Z,29.80
2019-04-14T15:46:06.558Z,29.20
2019-04-14T15:48:34.189Z,29.30
2019-04-14T15:51:01.967Z,28.00
2019-04-14T15:53:37.795Z,27.90
2019-04-14T15:55:59.492Z,29.10
2019-04-14T15:58:41.813Z,28.20
2019-04-14T16:01:38.162Z,28.50
2019-04-14T16:04:16.621Z,28.20
2019-04-14T16:06:59.157Z,26.10
2019-04-14T16:09:38.505Z,27.90
2019-04-14T16:12:25.072Z,27.30
2019-04-14T16:15:13.020Z,27.50
2019-04-14T16:18:10.668Z,27.60
2019-04-14T16:20:40.589Z,28.10
2019-04-14T16:23:11.085Z,29.00
2019-04-14T16:25:47.979Z,28.20
2019-04-14T16:28:21.302Z,27.90
2019-04-14T16:31:07.243Z,27.80
2019-04-14T16:33:53.801Z,27.80
2019-04-14T16:36:21.513Z,28.00
2019-04-14T16:38:49.226Z,28.40
2019-04-14T16:41:16.905Z,28.00
2019-04-14T16:43:44.607Z,29.40
2019-04-14T16:46:12.329Z,28.50
2019-04-14T16:48:40.191Z,29.20
2019-04-14T16:51:09.654Z,28.70
2019-04-14T16:53:39.789Z,29.60
2019-04-14T16:56:39.221Z,29.90
2019-04-14T16:59:12.781Z,29.70
2019-04-14T17:01:42.799Z,29.30
2019-04-14T17:04:10.708Z,29.30
2019-04-14T17:06:38.496Z,28.40
2019-04-14T17:09:07.157Z,29.10
2019-04-14T17:11:36.672Z,29.20
2019-04-14T17:14:12.684Z,28.90
2019-04-14T17:17:05.748Z,28.30
2019-04-14T17:19:40.774Z,29.60
2019-04-14T17:22:33.738Z,29.80
2019-04-14T17:25:26.131Z,30.00
2019-04-14T17:28:13.781Z,29.80
2019-04-14T17:31:07.084Z,30.90
2019-04-14T17:33:42.381Z,30.60
2019-04-14T17:36:41.844Z,30.40
2019-04-14T17:39:25.282Z,30.70
2019-04-14T17:42:09.373Z,31.60
2019-04-14T17:44:41.552Z,32.80
2019-04-14T17:47:36.184Z,34.20
2019-04-14T17:50:39.786Z,33.30
2019-04-14T17:53:01.409Z,33.30
2019-04-14T17:56:00.488Z,32.80
2019-04-14T17:58:35.908Z,33.10
2019-04-14T18:01:32.076Z,33.50
2019-04-14T18:04:34.302Z,32.60
2019-04-14T18:07:15.898Z,33.70
2019-04-14T18:10:01.463Z,33.90
2019-04-14T18:12:51.519Z,33.50
2019-04-14T18:15:41.346Z,34.10
2019-04-14T18:18:24.809Z,34.30
2019-04-14T18:20:55.719Z,33.70
2019-04-14T18:23:23.470Z,33.70
2019-04-14T18:25:51.165Z,34.00
2019-04-14T18:28:36.700Z,34.00
2019-04-14T18:31:22.292Z,34.40
2019-04-14T18:34:27.458Z,35.10
2019-04-14T18:37:23.798Z,34.20
2019-04-14T18:40:16.798Z,34.90
2019-04-14T18:43:06.868Z,34.80
2019-04-14T18:45:42.769Z,34.20
2019-04-14T18:48:15.033Z,34.00
2019-04-14T18:51:03.402Z,34.80
2019-04-14T18:53:42.321Z,34.90
2019-04-14T18:56:35.549Z,34.90
2019-04-14T18:59:21.612Z,34.70
2019-04-14T19:01:49.845Z,34.60
2019-04-14T19:04:17.639Z,35.00
2019-04-14T19:06:45.350Z,34.80
2019-04-14T19:09:13.358Z,34.80
2019-04-14T19:11:52.600Z,34.80
2019-04-14T19:14:24.229Z,35.80
2019-04-14T19:16:56.658Z,34.60
2019-04-14T19:19:24.432Z,34.80
2019-04-14T19:21:52.178Z,34.50
2019-04-14T19:24:20.005Z,34.60
2019-04-14T19:26:47.897Z,35.50
2019-04-14T19:29:15.608Z,35.20
2019-04-14T19:31:43.571Z,35.60
2019-04-14T19:34:11.248Z,35.50
2019-04-14T19:36:38.936Z,36.20
2019-04-14T19:39:09.018Z,36.00
2019-04-14T19:41:37.052Z,36.30
2019-04-14T19:44:04.743Z,36.60
2019-04-14T19:46:32.448Z,36.10
2019-04-14T19:49:00.142Z,36.30
2019-04-14T19:51:27.893Z,36.30
2019-04-14T19:53:55.672Z,36.30
2019-04-14T19:56:23.361Z,36.70
2019-04-14T19:58:51.082Z,37.00
2019-04-14T20:01:18.794Z,37.00
2019-04-14T20:03:46.550Z,37.50
2019-04-14T20:06:14.246Z,37.70
2019-04-14T20:08:41.994Z,37.30
2019-04-14T20:11:09.710Z,37.30
2019-04-14T20:13:40.746Z,37.40
2019-04-14T20:16:27.669Z,37.70
2019-04-14T20:19:12.040Z,37.80
2019-04-14T20:22:16.940Z,38.40
2019-04-14T20:25:02.571Z,38.50
2019-04-14T20:27:52.588Z,38.30
2019-04-14T20:30:33.382Z,38.00
2019-04-14T20:33:01.053Z,38.00
2019-04-14T20:35:28.780Z,38.40
2019-04-14T20:37:56.758Z,38.70
2019-04-14T20:40:24.411Z,38.90
2019-04-14T20:42:52.067Z,38.80
2019-04-14T20:45:19.758Z,38.40
2019-04-14T20:47:47.422Z,38.80
2019-04-14T20:50:15.238Z,38.60
2019-04-14T20:52:42.965Z,38.60
2019-04-14T20:55:10.620Z,39.80
2019-04-14T20:57:38.375Z,38.70
2019-04-14T21:00:06.980Z,38.40
2019-04-14T21:02:51.338Z,39.60
2019-04-14T21:05:38.714Z,39.50
2019-04-14T21:08:19.795Z,40.10
2019-04-14T21:10:54.482Z,39.60
2019-04-14T21:13:44.649Z,40.00
2019-04-14T21:16:22.812Z,41.20
2019-04-14T21:18:53.755Z,41.10
2019-04-14T21:21:43.481Z,41.30
2019-04-14T21:24:30.510Z,41.30
2019-04-14T21:27:12.742Z,41.10
2019-04-14T21:29:50.193Z,41.00
2019-04-14T21:32:27.514Z,41.30
2019-04-14T21:35:23.710Z,41.60
2019-04-14T21:38:17.769Z,41.70
2019-04-14T21:40:54.406Z,41.60
2019-04-14T21:43:22.218Z,41.70
2019-04-14T21:45:49.986Z,41.70
2019-04-14T21:48:17.777Z,41.60
2019-04-14T21:50:45.448Z,42.10
2019-04-14T21:53:13.116Z,42.50
2019-04-14T21:55:40.801Z,42.50
2019-04-14T21:58:20.054Z,44.40
2019-04-14T22:01:44.441Z,44.90
2019-04-14T22:04:49.540Z,44.80
2019-04-14T22:07:35.353Z,45.30
2019-04-14T22:10:22.918Z,45.20
2019-04-14T22:12:50.657Z,45.20
2019-04-14T22:15:18.316Z,45.20
2019-04-14T22:17:46.016Z,45.20
2019-04-14T22:20:13.810Z,45.20
2019-04-14T22:22:41.561Z,45.00
2019-04-14T22:25:10.386Z,45.10
2019-04-14T22:27:38.054Z,45.10
2019-04-14T22:30:07.046Z,45.10
2019-04-14T22:32:34.737Z,45.10
2019-04-14T22:35:02.439Z,45.10
2019-04-14T22:37:31.255Z,45.10
2019-04-14T22:39:59.095Z,44.80
2019-04-14T22:42:26.766Z,45.80
2019-04-14T22:44:54.409Z,45.50
2019-04-14T22:47:22.117Z,45.60
2019-04-14T22:49:49.759Z,45.50
2019-04-14T22:52:17.416Z,46.00
2019-04-14T22:54:45.082Z,46.40
2019-04-14T22:57:12.740Z,46.60
2019-04-14T22:59:40.408Z,46.70
2019-04-14T23:02:13.774Z,46.30
2019-04-14T23:04:59.605Z,46.10
2019-04-14T23:07:45.154Z,46.60
2019-04-14T23:10:22.084Z,46.70
2019-04-14T23:13:00.154Z,46.80
2019-04-14T23:15:45.940Z,46.50
2019-04-14T23:18:33.645Z,46.60
2019-04-14T23:21:32.736Z,46.30
2019-04-14T23:24:12.167Z,45.80
2019-04-14T23:26:51.853Z,46.10
2019-04-14T23:29:09.381Z,46.70
2019-04-14T23:31:37.124Z,46.30
2019-04-14T23:34:04.781Z,46.50
2019-04-14T23:36:32.508Z,47.00
2019-04-14T23:39:00.143Z,47.50
2019-04-14T23:41:27.797Z,47.90
2019-04-14T23:43:55.458Z,47.60
2019-04-14T23:46:23.121Z,47.50
2019-04-14T23:48:50.870Z,47.50
2019-04-14T23:51:18.584Z,47.60
2019-04-14T23:53:46.267Z,47.80
2019-04-14T23:56:13.931Z,47.40
2019-04-14T23:58:41.727Z,47.50
